Time;durP1;ratioP1;P1;durP2;ratioP2;P2;SDS_P1;SDS_P2;PMS_P1;PMS_P2;Temp;Humidity;BMP_temperature;BMP_pressure;BME280_temperature;BME280_humidity;BME280_pressure;Samples;Min_cycle;Max_cycle;Signal;HPM_P1;HPM_P2
2022/01/11 00:02:16;;;;;;;65.93;10.73;;;6.30;91.50;;;;;;5048518;28;20477;-71
2022/01/11 00:04:42;;;;;;;24.65;8.52;;;6.20;91.50;;;;;;5046964;28;20033;-71
2022/01/11 00:07:12;;;;;;;77.80;10.95;;;6.20;91.50;;;;;;5015601;28;20041;-71
2022/01/11 00:09:42;;;;;;;64.45;8.73;;;6.30;91.50;;;;;;5043882;28;20048;-71
2022/01/11 00:12:10;;;;;;;44.13;9.25;;;6.30;91.50;;;;;;5043384;28;20449;-71
2022/01/11 00:14:36;;;;;;;22.27;5.68;;;6.30;91.50;;;;;;5054834;28;20400;-71
2022/01/11 00:17:05;;;;;;;60.78;9.07;;;6.30;91.50;;;;;;5054983;28;20080;-71
2022/01/11 00:19:33;;;;;;;40.70;8.77;;;6.30;91.50;;;;;;5046303;28;20062;-71
2022/01/11 00:22:01;;;;;;;38.00;7.82;;;6.30;91.50;;;;;;5026249;28;20025;-71
2022/01/11 00:24:30;;;;;;;52.78;9.68;;;6.20;91.40;;;;;;5052918;28;20035;-72
2022/01/11 00:27:05;;;;;;;57.38;9.70;;;6.30;91.40;;;;;;5030041;28;20041;-72
2022/01/11 00:29:33;;;;;;;28.52;9.95;;;6.30;91.40;;;;;;5013847;28;20021;-71
2022/01/11 00:32:08;;;;;;;68.60;9.98;;;6.30;91.30;;;;;;5044880;28;20424;-72
2022/01/11 00:35:10;;;;;;;53.50;11.05;;;6.20;91.30;;;;;;5037785;28;20508;-72
2022/01/11 00:37:27;;;;;;;25.40;6.93;;;6.30;91.30;;;;;;5039783;28;20528;-72
2022/01/11 00:39:53;;;;;;;48.47;10.35;;;6.30;91.20;;;;;;5029182;28;20029;-72
2022/01/11 00:42:21;;;;;;;81.25;9.90;;;6.20;91.20;;;;;;5049127;28;20079;-71
2022/01/11 00:44:50;;;;;;;26.23;6.82;;;6.20;91.20;;;;;;5029936;28;20043;-71
2022/01/11 00:47:16;;;;;;;65.28;9.32;;;6.20;91.20;;;;;;5052224;28;20136;-71
2022/01/11 00:49:41;;;;;;;42.63;9.10;;;6.20;91.20;;;;;;5035005;28;20085;-71
2022/01/11 00:52:08;;;;;;;50.80;9.40;;;6.20;91.20;;;;;;5019718;28;20037;-72
2022/01/11 00:54:35;;;;;;;76.57;9.25;;;6.20;91.20;;;;;;5053587;28;20037;-73
2022/01/11 00:57:00;;;;;;;47.08;9.75;;;6.20;91.20;;;;;;5053939;28;20112;-72
2022/01/11 00:59:29;;;;;;;21.73;7.45;;;6.10;91.10;;;;;;5044152;28;20056;-72
2022/01/11 01:01:55;;;;;;;55.97;10.25;;;6.10;91.10;;;;;;5040656;28;20108;-71
2022/01/11 01:04:21;;;;;;;51.70;8.77;;;6.10;91.10;;;;;;5014540;28;20116;-71
2022/01/11 01:06:46;;;;;;;57.88;10.10;;;6.10;91.10;;;;;;5039120;28;20025;-72
2022/01/11 01:09:13;;;;;;;66.78;7.70;;;6.10;91.00;;;;;;5018632;28;20084;-72
2022/01/11 01:11:45;;;;;;;30.02;6.70;;;6.10;91.10;;;;;;5037117;28;20041;-71
2022/01/11 01:14:11;;;;;;;50.55;7.20;;;6.10;91.10;;;;;;5027371;28;20128;-71
2022/01/11 01:16:38;;;;;;;28.85;7.38;;;6.00;91.10;;;;;;5029953;28;20037;-71
2022/01/11 01:19:27;;;;;;;63.22;9.40;;;6.00;91.10;;;;;;5021301;28;20084;-72
2022/01/11 01:21:55;;;;;;;43.08;7.85;;;6.00;91.10;;;;;;5015728;28;20133;-71
2022/01/11 01:24:21;;;;;;;50.80;7.78;;;6.00;91.10;;;;;;5052809;28;20459;-72
2022/01/11 01:26:47;;;;;;;58.38;8.93;;;6.00;91.10;;;;;;5046622;28;20028;-72
2022/01/11 01:29:12;;;;;;;24.95;6.95;;;5.90;91.10;;;;;;5042243;28;20041;-72
2022/01/11 01:31:38;;;;;;;53.42;9.57;;;5.90;91.10;;;;;;5020423;28;20025;-72
2022/01/11 01:34:06;;;;;;;45.80;9.52;;;5.90;91.10;;;;;;5013818;28;20096;-72
2022/01/11 01:36:32;;;;;;;59.35;9.40;;;5.90;91.10;;;;;;5036843;28;20067;-72
2022/01/11 01:38:58;;;;;;;26.33;3.78;;;5.90;91.10;;;;;;5026910;28;20080;-72
2022/01/11 01:41:24;;;;;;;21.05;5.30;;;5.80;91.20;;;;;;5039055;28;20118;-72
2022/01/11 01:43:54;;;;;;;13.48;5.18;;;5.80;91.20;;;;;;5044550;28;20025;-72
2022/01/11 01:46:20;;;;;;;30.20;7.60;;;5.70;91.20;;;;;;5025844;28;20474;-71
2022/01/11 01:48:46;;;;;;;47.33;8.20;;;5.70;91.20;;;;;;5013258;28;20042;-71
2022/01/11 01:51:12;;;;;;;28.67;7.93;;;5.70;91.30;;;;;;5011691;28;20370;-71
2022/01/11 01:53:47;;;;;;;35.83;8.13;;;5.70;91.30;;;;;;5041431;28;20060;-71
2022/01/11 01:56:13;;;;;;;41.90;8.27;;;5.70;91.30;;;;;;5031975;28;20038;-71
2022/01/11 01:58:40;;;;;;;27.92;9.38;;;5.70;91.30;;;;;;5021694;28;20028;-72
2022/01/11 02:01:06;;;;;;;33.03;7.78;;;5.70;91.20;;;;;;5030834;28;20201;-72
2022/01/11 02:03:39;;;;;;;37.15;7.75;;;5.80;91.30;;;;;;5047652;28;20033;-72
2022/01/11 02:06:07;;;;;;;61.15;10.00;;;5.70;91.30;;;;;;5050849;28;20029;-71
2022/01/11 02:08:33;;;;;;;65.63;8.50;;;5.80;91.30;;;;;;5024650;28;20086;-72
2022/01/11 02:10:59;;;;;;;58.97;9.40;;;5.70;91.20;;;;;;5052355;28;20025;-72
2022/01/11 02:13:24;;;;;;;42.72;9.88;;;5.80;91.20;;;;;;5052482;28;20044;-72
2022/01/11 02:15:51;;;;;;;74.97;9.60;;;5.80;91.20;;;;;;5051316;28;20063;-72
2022/01/11 02:18:21;;;;;;;59.40;8.52;;;5.70;91.20;;;;;;5049727;28;20029;-72
2022/01/11 02:20:50;;;;;;;111.72;10.07;;;5.80;91.20;;;;;;5048466;28;20025;-72
2022/01/11 02:23:23;;;;;;;149.07;11.23;;;5.80;91.10;;;;;;5031682;28;20091;-72
2022/01/11 02:25:50;;;;;;;139.77;10.43;;;5.70;91.00;;;;;;5044343;28;20084;-72
2022/01/11 02:28:21;;;;;;;121.63;11.48;;;5.70;91.00;;;;;;5011842;28;20121;-72
2022/01/11 02:30:48;;;;;;;78.93;8.98;;;5.70;91.00;;;;;;5028980;28;20465;-72
2022/01/11 02:33:30;;;;;;;100.63;8.68;;;5.70;91.00;;;;;;5025394;28;20124;-72
2022/01/11 02:36:04;;;;;;;58.65;7.60;;;5.60;91.00;;;;;;5035222;28;20025;-72
2022/01/11 02:38:31;;;;;;;54.97;7.88;;;5.60;91.00;;;;;;5032813;28;20078;-72
2022/01/11 02:40:58;;;;;;;37.55;7.78;;;5.60;91.00;;;;;;5033629;28;20040;-72
2022/01/11 02:43:26;;;;;;;79.03;9.93;;;5.60;91.00;;;;;;5043007;28;20123;-73
2022/01/11 02:45:52;;;;;;;74.78;9.98;;;5.50;91.10;;;;;;5046494;28;20033;-72
2022/01/11 02:48:21;;;;;;;100.65;10.60;;;5.60;91.10;;;;;;5043357;28;20485;-71
2022/01/11 02:50:48;;;;;;;45.78;9.45;;;5.60;91.10;;;;;;5044266;28;20120;-72
2022/01/11 02:53:17;;;;;;;125.63;11.20;;;5.50;91.10;;;;;;5043992;28;20045;-72
2022/01/11 02:55:44;;;;;;;19.80;7.35;;;5.50;91.10;;;;;;5043715;28;20029;-71
2022/01/11 02:58:10;;;;;;;62.17;9.77;;;5.60;91.10;;;;;;5035130;28;20135;-72
2022/01/11 03:00:38;;;;;;;51.88;8.15;;;5.50;91.10;;;;;;5035772;28;20180;-72
2022/01/11 03:03:18;;;;;;;60.20;10.43;;;5.50;91.10;;;;;;5046896;28;20366;-72
2022/01/11 03:05:48;;;;;;;53.22;9.43;;;5.50;91.20;;;;;;5028954;28;20064;-71
2022/01/11 03:08:17;;;;;;;60.63;10.40;;;5.50;91.20;;;;;;5033476;28;20040;-71
2022/01/11 03:10:45;;;;;;;100.38;11.70;;;5.50;91.10;;;;;;5037510;28;20017;-72
2022/01/11 03:13:11;;;;;;;20.00;7.25;;;5.40;91.10;;;;;;5044826;28;20382;-72
2022/01/11 03:15:40;;;;;;;60.30;10.85;;;5.40;91.10;;;;;;5018757;28;20508;-71
2022/01/11 03:18:09;;;;;;;14.10;6.20;;;5.40;91.20;;;;;;5044819;28;20086;-71
2022/01/11 03:20:43;;;;;;;30.08;9.63;;;5.40;91.20;;;;;;5049737;28;20041;-72
2022/01/11 03:23:14;;;;;;;41.42;7.93;;;5.40;91.20;;;;;;5036691;28;20059;-72
2022/01/11 03:25:41;;;;;;;29.67;7.38;;;5.30;91.20;;;;;;5041054;28;20070;-72
2022/01/11 03:28:08;;;;;;;36.75;7.82;;;5.30;91.20;;;;;;5039663;28;20118;-72
2022/01/11 03:30:35;;;;;;;59.35;9.65;;;5.40;91.30;;;;;;5034081;28;20090;-72
2022/01/11 03:33:02;;;;;;;38.25;10.40;;;5.40;91.30;;;;;;5051357;28;20037;-72
2022/01/11 03:35:32;;;;;;;40.70;9.38;;;5.40;91.30;;;;;;5050115;28;20051;-72
2022/01/11 03:37:58;;;;;;;52.25;9.27;;;5.40;91.30;;;;;;5037736;28;20026;-71
2022/01/11 03:40:26;;;;;;;42.97;8.93;;;5.40;91.30;;;;;;5030708;28;20033;-72
2022/01/11 03:42:54;;;;;;;51.63;9.27;;;5.40;91.30;;;;;;5041860;28;20119;-72
2022/01/11 03:45:21;;;;;;;45.08;7.05;;;5.40;91.30;;;;;;5044730;28;20034;-72
2022/01/11 03:47:50;;;;;;;12.07;5.63;;;5.40;91.30;;;;;;5046612;28;20021;-71
2022/01/11 03:50:17;;;;;;;28.10;9.77;;;5.40;91.40;;;;;;5024888;28;20056;-71
2022/01/11 03:52:44;;;;;;;48.38;10.02;;;5.40;91.40;;;;;;5028986;28;20084;-71
2022/01/11 03:55:12;;;;;;;38.08;9.43;;;5.40;91.40;;;;;;5039120;28;20025;-71
2022/01/11 03:57:49;;;;;;;42.90;9.40;;;5.40;91.40;;;;;;5030274;28;21471;-71
2022/01/11 04:00:19;;;;;;;76.18;12.45;;;5.40;91.40;;;;;;5033576;28;20028;-71
2022/01/11 04:02:47;;;;;;;51.22;10.95;;;5.40;91.40;;;;;;5045481;28;20026;-71
2022/01/11 04:05:17;;;;;;;49.35;12.35;;;5.40;91.40;;;;;;5014848;28;20470;-71
2022/01/11 04:07:43;;;;;;;51.10;13.38;;;5.40;91.40;;;;;;5039436;28;20124;-71
2022/01/11 04:10:11;;;;;;;48.53;12.27;;;5.40;91.40;;;;;;5013742;28;20168;-71
2022/01/11 04:12:38;;;;;;;77.65;14.35;;;5.40;91.40;;;;;;5014609;28;20079;-71
2022/01/11 04:15:05;;;;;;;41.47;10.40;;;5.40;91.40;;;;;;5024834;28;20038;-72
2022/01/11 04:17:31;;;;;;;57.53;13.93;;;5.40;91.40;;;;;;5044986;28;20118;-72
2022/01/11 04:20:19;;;;;;;39.78;10.60;;;5.40;91.40;;;;;;5034521;28;20026;-72
2022/01/11 04:22:46;;;;;;;29.75;8.02;;;5.30;91.40;;;;;;5024646;28;20547;-72
2022/01/11 04:25:13;;;;;;;97.28;14.50;;;5.30;91.40;;;;;;5036421;28;20498;-72
2022/01/11 04:27:38;;;;;;;32.53;8.07;;;5.30;91.40;;;;;;5040953;28;20022;-72
2022/01/11 04:30:08;;;;;;;13.57;5.65;;;5.30;91.40;;;;;;5038838;28;20043;-72
2022/01/11 04:32:34;;;;;;;26.67;9.27;;;5.30;91.50;;;;;;5042040;28;20092;-72
2022/01/11 04:34:59;;;;;;;37.83;9.48;;;5.30;91.50;;;;;;5051604;28;20162;-72
2022/01/11 04:37:25;;;;;;;36.08;8.45;;;5.30;91.60;;;;;;5041912;28;20033;-71
2022/01/11 04:39:51;;;;;;;57.20;10.15;;;5.30;91.60;;;;;;5053754;28;20458;-71
2022/01/11 04:42:17;;;;;;;44.05;12.68;;;5.30;91.60;;;;;;5026285;28;20026;-72
2022/01/11 04:44:43;;;;;;;75.38;15.27;;;5.30;91.60;;;;;;5018104;28;20096;-71
2022/01/11 04:47:09;;;;;;;43.22;10.70;;;5.30;91.60;;;;;;5052393;28;20424;-71
2022/01/11 04:49:34;;;;;;;68.40;11.98;;;5.30;91.60;;;;;;5026509;28;20076;-71
2022/01/11 04:52:02;;;;;;;64.45;14.90;;;5.30;91.60;;;;;;5033562;28;20092;-71
2022/01/11 04:54:28;;;;;;;51.05;13.63;;;5.30;91.60;;;;;;5045256;28;20044;-71
2022/01/11 04:56:53;;;;;;;44.45;10.50;;;5.30;91.60;;;;;;5032512;28;20026;-72
2022/01/11 04:59:19;;;;;;;27.92;12.10;;;5.30;91.60;;;;;;5013105;28;20076;-72
2022/01/11 05:01:45;;;;;;;30.85;11.23;;;5.30;91.60;;;;;;5034298;28;20033;-71
2022/01/11 05:04:13;;;;;;;38.15;12.70;;;5.30;91.60;;;;;;5026414;28;20443;-71
2022/01/11 05:06:39;;;;;;;44.17;13.82;;;5.30;91.90;;;;;;5046558;28;20021;-71
2022/01/11 05:09:04;;;;;;;33.22;9.45;;;5.30;91.60;;;;;;5012456;28;20392;-71
2022/01/11 05:11:33;;;;;;;38.00;10.70;;;5.30;91.60;;;;;;5012337;28;20040;-71
2022/01/11 05:14:01;;;;;;;50.58;14.82;;;5.40;91.60;;;;;;5014092;28;20503;-70
2022/01/11 05:16:39;;;;;;;37.58;15.05;;;5.30;91.60;;;;;;5016381;28;20087;-70
2022/01/11 05:19:07;;;;;;;37.13;14.18;;;5.40;91.60;;;;;;5028376;28;20038;-73
2022/01/11 05:21:33;;;;;;;43.08;15.55;;;5.30;91.60;;;;;;5017114;28;20029;-71
2022/01/11 05:26:17;;;;;;;31.58;13.05;;;5.30;91.30;;;;;;5054611;28;20463;-67
2022/01/11 05:28:43;;;;;;;25.48;11.82;;;5.30;91.60;;;;;;5044924;28;20036;-67
2022/01/11 05:31:12;;;;;;;30.90;13.65;;;5.20;91.60;;;;;;5044255;28;20052;-67
2022/01/11 05:33:37;;;;;;;29.27;12.32;;;5.30;91.60;;;;;;5041159;28;20060;-66
2022/01/11 05:36:03;;;;;;;27.67;12.77;;;5.30;91.60;;;;;;5057626;28;20025;-67
2022/01/11 05:38:34;;;;;;;15.50;6.93;;;5.30;91.70;;;;;;5047896;28;20436;-67
2022/01/11 05:40:59;;;;;;;48.90;15.30;;;5.30;91.70;;;;;;5045449;28;20119;-67
2022/01/11 05:43:25;;;;;;;41.00;13.48;;;5.30;91.70;;;;;;5029090;28;20125;-66
2022/01/11 05:45:51;;;;;;;34.97;14.02;;;5.30;91.70;;;;;;5039714;28;20075;-67
2022/01/11 05:48:17;;;;;;;32.60;12.80;;;5.30;91.70;;;;;;5029434;28;20026;-67
2022/01/11 05:50:43;;;;;;;32.47;14.43;;;5.20;91.70;;;;;;5031112;28;20095;-67
2022/01/11 05:53:12;;;;;;;19.90;6.75;;;5.20;91.70;;;;;;5038530;28;20045;-67
2022/01/11 05:55:38;;;;;;;33.17;14.10;;;5.20;91.70;;;;;;5047421;28;20075;-67
2022/01/11 05:58:04;;;;;;;29.30;12.50;;;5.20;91.70;;;;;;5047289;28;20021;-67
2022/01/11 06:00:30;;;;;;;36.63;13.75;;;5.20;91.70;;;;;;5041373;28;20026;-67
2022/01/11 06:02:57;;;;;;;34.67;14.48;;;5.30;91.70;;;;;;5035580;28;20021;-67
2022/01/11 06:05:39;;;;;;;30.45;11.52;;;5.20;91.70;;;;;;5046001;28;20029;-67
2022/01/11 06:08:07;;;;;;;25.25;11.45;;;5.30;91.70;;;;;;5040546;28;20084;-68
2022/01/11 06:10:33;;;;;;;40.38;15.65;;;5.20;91.70;;;;;;5035789;28;20104;-67
2022/01/11 06:13:00;;;;;;;32.45;12.98;;;5.20;91.70;;;;;;5045803;28;20116;-65
2022/01/11 06:15:29;;;;;;;29.35;12.85;;;5.20;91.70;;;;;;5045748;28;20033;-66
2022/01/11 06:17:55;;;;;;;30.63;12.93;;;5.30;91.70;;;;;;5036512;28;20025;-66
2022/01/11 06:20:22;;;;;;;32.58;13.07;;;5.20;91.70;;;;;;5040344;28;20052;-66
2022/01/11 06:22:47;;;;;;;33.97;14.07;;;5.30;91.70;;;;;;5037333;28;20059;-66
2022/01/11 06:25:14;;;;;;;29.88;12.43;;;5.20;91.70;;;;;;5034127;28;20132;-66
2022/01/11 06:27:43;;;;;;;31.75;12.40;;;5.20;91.70;;;;;;5046117;28;20442;-66
2022/01/11 06:30:10;;;;;;;23.60;10.60;;;5.30;91.70;;;;;;5036480;28;20040;-67
2022/01/11 06:32:43;;;;;;;33.38;12.18;;;5.30;91.70;;;;;;5045292;28;20025;-67
2022/01/11 06:35:15;;;;;;;26.13;9.63;;;5.30;91.70;;;;;;5033617;28;20538;-64
2022/01/11 06:37:44;;;;;;;33.53;12.63;;;5.30;91.70;;;;;;5026499;28;20025;-67
2022/01/11 06:40:13;;;;;;;36.47;14.20;;;5.30;91.70;;;;;;5017617;28;20055;-67
2022/01/11 06:42:39;;;;;;;27.13;11.63;;;5.30;91.70;;;;;;5024031;28;20543;-67
2022/01/11 06:45:06;;;;;;;34.90;13.10;;;5.30;91.70;;;;;;5023058;28;20042;-67
2022/01/11 06:47:32;;;;;;;38.00;15.52;;;5.30;91.70;;;;;;5032006;28;20100;-67
2022/01/11 06:49:58;;;;;;;23.65;11.65;;;5.30;91.70;;;;;;5020451;28;20021;-66
2022/01/11 06:52:25;;;;;;;26.95;11.57;;;5.20;91.60;;;;;;5031547;28;20022;-66
2022/01/11 06:54:51;;;;;;;31.95;13.15;;;5.20;91.70;;;;;;5028419;28;20160;-64
2022/01/11 06:57:17;;;;;;;39.22;15.18;;;5.20;91.70;;;;;;5020255;28;20033;-66
2022/01/11 06:59:43;;;;;;;32.95;13.02;;;5.20;91.70;;;;;;5031487;28;20030;-67
2022/01/11 07:02:11;;;;;;;23.48;8.30;;;5.20;91.70;;;;;;5020479;28;20034;-66
2022/01/11 07:05:09;;;;;;;25.45;10.32;;;5.20;91.70;;;;;;5011450;28;20440;-66
2022/01/11 07:07:36;;;;;;;33.05;13.88;;;5.10;91.70;;;;;;5033013;28;20183;-66
2022/01/11 07:10:04;;;;;;;34.92;13.52;;;5.10;91.70;;;;;;5019423;28;20394;-66
2022/01/11 07:12:30;;;;;;;37.42;14.98;;;5.10;91.70;;;;;;5032432;28;20465;-66
2022/01/11 07:14:55;;;;;;;34.42;13.63;;;5.10;91.70;;;;;;5033595;28;20027;-66
2022/01/11 07:17:23;;;;;;;35.97;12.02;;;5.10;91.80;;;;;;5033247;28;20037;-67
2022/01/11 07:19:50;;;;;;;33.70;13.98;;;5.10;91.80;;;;;;5024526;28;20025;-66
2022/01/11 07:22:15;;;;;;;38.38;13.70;;;5.00;91.80;;;;;;5025207;28;20032;-66
2022/01/11 07:24:44;;;;;;;22.17;9.68;;;5.10;91.80;;;;;;5013410;28;20046;-66
2022/01/11 07:27:10;;;;;;;32.63;12.20;;;5.00;91.80;;;;;;5028626;28;20018;-66
2022/01/11 07:29:36;;;;;;;14.82;6.07;;;5.10;91.80;;;;;;5033309;28;20488;-66
2022/01/11 07:32:05;;;;;;;31.25;11.70;;;5.10;91.90;;;;;;5028715;28;20029;-66
2022/01/11 07:34:31;;;;;;;39.13;14.15;;;5.10;91.90;;;;;;5024704;28;20033;-66
2022/01/11 07:36:56;;;;;;;36.20;12.32;;;5.10;91.90;;;;;;5015454;28;20026;-66
2022/01/11 07:39:22;;;;;;;28.80;10.65;;;5.10;91.90;;;;;;5024478;28;20022;-66
2022/01/11 07:41:50;;;;;;;35.85;14.00;;;5.10;91.90;;;;;;5027202;28;20053;-66
2022/01/11 07:44:36;;;;;;;45.72;16.15;;;5.10;91.90;;;;;;5028987;28;20049;-66
2022/01/11 07:47:04;;;;;;;25.35;9.65;;;5.10;91.90;;;;;;5024540;28;20075;-66
2022/01/11 07:49:33;;;;;;;34.95;13.43;;;5.10;91.90;;;;;;5014161;28;20030;-66
2022/01/11 07:52:00;;;;;;;37.47;13.63;;;5.10;91.90;;;;;;5034327;28;20063;-66
2022/01/11 07:54:26;;;;;;;25.35;10.07;;;5.10;91.90;;;;;;5033776;28;20392;-66
2022/01/11 07:56:52;;;;;;;29.25;11.40;;;5.10;91.90;;;;;;5048685;28;20029;-66
2022/01/11 07:59:20;;;;;;;27.52;12.20;;;5.10;91.90;;;;;;5020190;28;20030;-67
2022/01/11 08:01:47;;;;;;;37.05;13.70;;;5.10;91.80;;;;;;5022476;28;20029;-66
2022/01/11 08:04:14;;;;;;;30.60;13.02;;;5.10;91.90;;;;;;5029774;28;20465;-66
2022/01/11 08:06:46;;;;;;;28.85;11.55;;;5.10;91.90;;;;;;5020412;28;20096;-66
2022/01/11 08:09:22;;;;;;;31.40;13.18;;;5.10;91.90;;;;;;5019410;28;20055;-67
2022/01/11 08:11:50;;;;;;;26.95;11.45;;;5.10;91.90;;;;;;5032169;28;20068;-66
2022/01/11 08:14:16;;;;;;;33.17;11.63;;;5.10;91.90;;;;;;5032083;28;20025;-66
2022/01/11 08:16:45;;;;;;;30.15;11.93;;;5.10;91.80;;;;;;5033014;28;20052;-67
2022/01/11 08:19:12;;;;;;;29.20;12.05;;;5.20;91.90;;;;;;5028512;28;20025;-66
2022/01/11 08:21:37;;;;;;;31.20;12.93;;;5.20;91.90;;;;;;5013301;28;20386;-68
2022/01/11 08:24:04;;;;;;;33.50;14.48;;;5.20;91.90;;;;;;5028372;28;20032;-66
2022/01/11 08:26:30;;;;;;;17.05;6.53;;;5.20;91.90;;;;;;5032134;28;20486;-67
2022/01/11 08:28:57;;;;;;;33.83;13.32;;;5.20;91.90;;;;;;5014614;28;20519;-66
2022/01/11 08:31:23;;;;;;;28.40;11.98;;;5.30;91.90;;;;;;5039431;28;20033;-66
2022/01/11 08:33:55;;;;;;;45.75;15.60;;;5.30;91.80;;;;;;5018844;28;20025;-66
2022/01/11 08:36:21;;;;;;;19.17;8.77;;;5.30;91.80;;;;;;5031949;28;20029;-66
2022/01/11 08:38:47;;;;;;;40.50;8.77;;;5.30;91.80;;;;;;5031047;28;20040;-66
2022/01/11 08:41:19;;;;;;;21.65;9.48;;;5.30;91.80;;;;;;5027891;28;20061;-67
2022/01/11 08:43:48;;;;;;;35.92;14.75;;;5.20;91.70;;;;;;5019909;28;20013;-66
2022/01/11 08:46:16;;;;;;;41.65;15.88;;;5.20;91.70;;;;;;5030933;28;20044;-67
2022/01/11 08:49:12;;;;;;;17.23;7.28;;;5.20;91.80;;;;;;5028734;28;20108;-67
2022/01/11 08:51:40;;;;;;;22.15;9.13;;;5.20;91.80;;;;;;5024950;28;20042;-66
2022/01/11 08:54:08;;;;;;;37.53;15.40;;;5.20;91.70;;;;;;5031401;28;20029;-66
2022/01/11 08:56:34;;;;;;;26.27;9.13;;;5.20;91.80;;;;;;5035848;28;20029;-66
2022/01/11 08:59:01;;;;;;;35.67;12.40;;;5.20;91.80;;;;;;5018151;28;20034;-66
2022/01/11 09:01:36;;;;;;;35.70;14.00;;;5.20;91.80;;;;;;5031659;28;20033;-66
2022/01/11 09:04:05;;;;;;;45.88;12.90;;;5.20;91.80;;;;;;5031250;28;20628;-66
2022/01/11 09:06:40;;;;;;;18.95;7.93;;;5.20;91.80;;;;;;5018449;28;20038;-66
2022/01/11 09:09:06;;;;;;;38.80;15.23;;;5.30;91.80;;;;;;5010681;28;20040;-66
2022/01/11 09:11:33;;;;;;;30.38;12.93;;;5.30;91.80;;;;;;5019885;28;20038;-66
2022/01/11 09:13:59;;;;;;;17.98;8.77;;;5.30;91.80;;;;;;5028860;28;20485;-66
2022/01/11 09:16:26;;;;;;;42.38;15.20;;;5.30;91.80;;;;;;5019827;28;20041;-66
2022/01/11 09:18:53;;;;;;;40.28;12.63;;;5.30;91.80;;;;;;5030751;28;20167;-66
2022/01/11 09:21:22;;;;;;;25.77;10.80;;;5.30;91.80;;;;;;5030648;28;20667;-66
2022/01/11 09:23:50;;;;;;;34.67;11.05;;;5.30;91.80;;;;;;5018069;28;20453;-65
2022/01/11 09:26:16;;;;;;;34.65;12.15;;;5.30;91.70;;;;;;5022402;28;20034;-66
2022/01/11 09:28:48;;;;;;;35.53;11.93;;;5.30;91.70;;;;;;5027312;28;20044;-66
2022/01/11 09:31:16;;;;;;;33.00;13.63;;;5.30;91.70;;;;;;5021164;28;20033;-66
2022/01/11 09:33:42;;;;;;;33.47;12.10;;;5.30;91.70;;;;;;5027977;28;20025;-67
2022/01/11 09:36:08;;;;;;;39.90;13.52;;;5.30;91.70;;;;;;5047842;28;20080;-66
2022/01/11 09:38:34;;;;;;;25.65;9.60;;;5.30;91.80;;;;;;5013385;28;20037;-66
2022/01/11 09:41:01;;;;;;;24.33;9.50;;;5.30;91.70;;;;;;5021999;28;20136;-66
2022/01/11 09:43:31;;;;;;;8.13;4.50;;;5.30;91.70;;;;;;5031021;28;20028;-66
2022/01/11 09:46:03;;;;;;;20.10;9.55;;;5.30;91.70;;;;;;5031042;28;20038;-66
2022/01/11 09:48:33;;;;;;;28.85;12.50;;;5.30;91.70;;;;;;5030186;28;20037;-66
2022/01/11 09:51:04;;;;;;;22.45;9.45;;;5.30;91.70;;;;;;5030933;28;20076;-66
2022/01/11 09:53:31;;;;;;;29.38;11.48;;;5.30;91.70;;;;;;5031308;28;20032;-66
2022/01/11 09:56:06;;;;;;;14.15;6.50;;;5.40;91.70;;;;;;5017005;28;20117;-66
2022/01/11 09:58:34;;;;;;;30.48;10.45;;;5.40;91.70;;;;;;5021125;28;20026;-66
2022/01/11 10:01:01;;;;;;;26.33;12.35;;;5.40;91.60;;;;;;5029429;28;20040;-66
2022/01/11 10:04:03;;;;;;;21.33;8.70;;;5.40;91.60;;;;;;5030379;28;20025;-66
2022/01/11 10:06:59;;;;;;;23.15;8.68;;;5.40;91.60;;;;;;5024371;28;20044;-66
2022/01/11 10:09:32;;;;;;;18.30;6.50;;;5.40;91.60;;;;;;5010572;28;20386;-68
2022/01/11 10:12:02;;;;;;;18.83;7.70;;;5.40;91.60;;;;;;5044445;28;20033;-66
2022/01/11 10:14:34;;;;;;;17.15;6.07;;;5.30;91.60;;;;;;5033692;28;20488;-68
2022/01/11 10:17:11;;;;;;;20.38;8.85;;;5.30;91.60;;;;;;5025116;28;20018;-67
2022/01/11 10:19:43;;;;;;;25.60;10.02;;;5.30;91.60;;;;;;5023449;28;20433;-67
2022/01/11 10:22:12;;;;;;;26.75;11.25;;;5.30;91.60;;;;;;5035109;28;20021;-67
2022/01/11 10:24:44;;;;;;;18.15;7.93;;;5.30;91.60;;;;;;5022034;28;20401;-67
2022/01/11 10:27:26;;;;;;;8.88;4.28;;;5.30;91.60;;;;;;5022867;28;20039;-67
2022/01/11 10:30:14;;;;;;;8.25;4.30;;;5.40;91.60;;;;;;5050034;28;20025;-67
2022/01/11 10:32:47;;;;;;;17.58;6.25;;;5.40;91.60;;;;;;5025496;28;20026;-67
2022/01/11 10:35:24;;;;;;;14.60;7.90;;;5.40;91.60;;;;;;5028069;28;20119;-67
2022/01/11 10:38:00;;;;;;;14.88;5.75;;;5.30;91.60;;;;;;5024760;28;20026;-66
2022/01/11 10:40:36;;;;;;;9.38;4.18;;;5.30;91.70;;;;;;5031161;28;20499;-66
2022/01/11 10:43:06;;;;;;;11.50;5.90;;;5.30;91.70;;;;;;5050030;28;20024;-66
2022/01/11 10:45:35;;;;;;;9.38;5.43;;;5.20;91.70;;;;;;5027024;28;20052;-67
2022/01/11 10:48:07;;;;;;;16.40;7.38;;;5.20;91.70;;;;;;5022408;28;20355;-67
2022/01/11 10:50:37;;;;;;;9.00;4.78;;;5.20;91.80;;;;;;5049522;28;20044;-67
2022/01/11 10:53:11;;;;;;;8.13;4.38;;;5.20;91.90;;;;;;5026130;28;20056;-67
2022/01/11 10:55:40;;;;;;;11.48;5.78;;;5.20;91.90;;;;;;5032429;28;20029;-66
2022/01/11 10:58:09;;;;;;;10.27;5.00;;;5.20;91.90;;;;;;5033020;28;20111;-67
2022/01/11 11:00:47;;;;;;;4.40;3.75;;;5.20;91.90;;;;;;5033255;28;20059;-67
2022/01/11 11:03:16;;;;;;;12.10;6.45;;;5.20;92.00;;;;;;5033204;28;20125;-66
2022/01/11 11:05:57;;;;;;;8.00;4.57;;;5.20;92.00;;;;;;5024813;28;20516;-67
2022/01/11 11:08:27;;;;;;;11.02;5.45;;;5.20;92.10;;;;;;5030445;28;20444;-67
2022/01/11 11:11:09;;;;;;;15.95;5.50;;;5.20;92.10;;;;;;5025473;28;20029;-68
2022/01/11 11:13:40;;;;;;;8.95;4.63;;;5.20;92.40;;;;;;5021100;28;20104;-67
2022/01/11 11:16:17;;;;;;;23.80;8.52;;;5.20;92.20;;;;;;5027220;28;20034;-67
2022/01/11 11:18:47;;;;;;;13.15;5.82;;;5.20;92.20;;;;;;5032818;28;20420;-67
2022/01/11 11:21:32;;;;;;;6.38;3.75;;;5.10;92.30;;;;;;5028252;28;20405;-67
2022/01/11 11:24:02;;;;;;;4.82;2.53;;;5.20;92.40;;;;;;5033704;28;20473;-67
2022/01/11 11:26:37;;;;;;;10.50;5.22;;;5.20;92.40;;;;;;5033059;28;20124;-67
2022/01/11 11:29:04;;;;;;;10.75;5.68;;;5.20;92.40;;;;;;5033892;28;20121;-67
2022/01/11 11:31:30;;;;;;;13.05;6.43;;;5.20;92.50;;;;;;5033841;28;20113;-68
2022/01/11 11:33:56;;;;;;;10.38;5.75;;;5.20;92.60;;;;;;5033004;28;20029;-67
2022/01/11 11:36:22;;;;;;;6.22;4.03;;;5.20;92.70;;;;;;5033487;28;20022;-68
2022/01/11 11:38:50;;;;;;;7.35;3.00;;;5.20;92.80;;;;;;5033885;28;20032;-68
2022/01/11 11:41:17;;;;;;;15.40;7.32;;;5.20;92.90;;;;;;5032557;28;20477;-67
2022/01/11 11:43:43;;;;;;;12.50;6.38;;;5.20;93.00;;;;;;5033683;28;20038;-67
2022/01/11 11:46:12;;;;;;;12.10;6.47;;;5.20;93.00;;;;;;5033320;28;20077;-67
2022/01/11 11:48:37;;;;;;;7.18;4.15;;;5.10;93.10;;;;;;5032987;28;20477;-68
2022/01/11 11:51:10;;;;;;;7.53;4.25;;;5.20;93.20;;;;;;5033828;28;20067;-68
2022/01/11 11:53:47;;;;;;;8.60;4.20;;;5.10;93.20;;;;;;5034321;28;20103;-68
2022/01/11 11:56:14;;;;;;;11.90;5.85;;;5.20;93.30;;;;;;5033307;28;20037;-68
2022/01/11 11:58:42;;;;;;;10.38;5.65;;;5.20;93.30;;;;;;5033472;28;20057;-68
2022/01/11 12:01:58;;;;;;;12.43;6.22;;;5.20;93.40;;;;;;5033898;28;20466;-68
2022/01/11 12:04:27;;;;;;;6.45;3.92;;;5.20;93.40;;;;;;5032610;28;20045;-68
2022/01/11 12:06:55;;;;;;;7.43;3.40;;;5.20;93.40;;;;;;5033075;28;20040;-68
2022/01/11 12:09:22;;;;;;;6.88;4.30;;;5.20;93.40;;;;;;5025833;28;20033;-67
2022/01/11 12:11:51;;;;;;;13.02;6.32;;;5.30;93.50;;;;;;5033300;28;20040;-67
2022/01/11 12:14:37;;;;;;;12.90;5.45;;;5.30;93.50;;;;;;5032807;28;20183;-67
2022/01/11 12:17:18;;;;;;;9.25;3.30;;;5.30;93.60;;;;;;5031911;28;20037;-67
2022/01/11 12:19:48;;;;;;;10.30;5.88;;;5.30;93.60;;;;;;5031743;28;20034;-67
2022/01/11 12:22:25;;;;;;;12.98;6.60;;;5.30;93.60;;;;;;5028321;28;20029;-68
2022/01/11 12:24:55;;;;;;;3.53;2.55;;;5.40;93.70;;;;;;5031516;28;20044;-69
2022/01/11 12:27:22;;;;;;;12.50;5.82;;;5.40;93.70;;;;;;5031756;28;20378;-68
2022/01/11 12:30:08;;;;;;;11.07;5.50;;;5.40;93.60;;;;;;5031772;28;20040;-69
2022/01/11 12:32:38;;;;;;;7.50;3.67;;;5.40;93.60;;;;;;5032505;28;20022;-69
2022/01/11 12:35:20;;;;;;;14.38;5.30;;;5.40;93.60;;;;;;5032226;28;20029;-69
2022/01/11 12:37:46;;;;;;;12.13;5.35;;;5.40;93.90;;;;;;5031879;28;20026;-69
2022/01/11 12:40:15;;;;;;;10.98;4.18;;;5.50;93.70;;;;;;5031947;28;20477;-69
2022/01/11 12:42:53;;;;;;;7.22;3.33;;;5.40;93.60;;;;;;5032101;28;20111;-68
2022/01/11 12:45:58;;;;;;;14.90;7.43;;;5.50;93.70;;;;;;5031701;28;20500;-68
2022/01/11 12:48:43;;;;;;;10.65;5.80;;;5.50;93.70;;;;;;5032389;28;20079;-68
2022/01/11 12:51:26;;;;;;;10.43;5.10;;;5.50;93.60;;;;;;5030974;28;20025;-68
2022/01/11 12:54:19;;;;;;;6.63;4.47;;;5.50;93.60;;;;;;5032568;28;20083;-68
2022/01/11 12:56:46;;;;;;;13.27;5.85;;;5.60;93.60;;;;;;5032450;28;20431;-68
2022/01/11 12:59:13;;;;;;;8.07;3.75;;;5.60;93.60;;;;;;5031391;28;20025;-70